Time;durP1;ratioP1;P1;durP2;ratioP2;P2;SDS_P1;SDS_P2;PMS_P1;PMS_P2;Temp;Humidity;BMP_temperature;BMP_pressure;BME280_temperature;BME280_humidity;BME280_pressure;Samples;Min_cycle;Max_cycle;Signal;HPM_P1;HPM_P2
2021/07/04 00:00:29;;;;;;;2.90;2.60;;;11.80;99.90;;;;;;5032708;28;20036;-59
2021/07/04 00:02:57;;;;;;;3.00;2.80;;;11.80;99.90;;;;;;5032737;28;20025;-62
2021/07/04 00:05:35;;;;;;;2.70;2.33;;;11.80;99.90;;;;;;5032720;28;20041;-62
2021/07/04 00:08:02;;;;;;;2.72;2.53;;;11.80;99.90;;;;;;5032415;28;20032;-61
2021/07/04 00:10:33;;;;;;;3.30;2.40;;;11.80;99.90;;;;;;5032608;28;20017;-61
2021/07/04 00:13:00;;;;;;;2.88;2.70;;;12.10;99.90;;;;;;5032712;28;20490;-59
2021/07/04 00:15:34;;;;;;;3.00;2.67;;;12.10;99.90;;;;;;5032594;28;20104;-62
2021/07/04 00:18:02;;;;;;;2.20;2.10;;;12.00;99.90;;;;;;5032561;28;20486;-60
2021/07/04 00:20:29;;;;;;;2.65;2.20;;;12.20;99.90;;;;;;5032439;28;20021;-60
2021/07/04 00:22:56;;;;;;;2.35;2.20;;;12.40;99.90;;;;;;5032420;28;20022;-61
2021/07/04 00:25:26;;;;;;;2.20;2.10;;;12.40;99.90;;;;;;5032301;28;20474;-61
2021/07/04 00:27:54;;;;;;;2.67;2.08;;;12.30;99.90;;;;;;5032050;28;20026;-61
2021/07/04 00:30:22;;;;;;;4.80;1.90;;;12.40;99.40;;;;;;5032229;28;20025;-61
2021/07/04 00:32:50;;;;;;;1.90;1.80;;;12.30;99.20;;;;;;5032397;28;20097;-60
2021/07/04 00:35:19;;;;;;;2.17;1.88;;;12.30;99.30;;;;;;5032404;28;20092;-61
2021/07/04 00:37:47;;;;;;;2.00;1.90;;;12.20;99.70;;;;;;5032424;28;20025;-60
2021/07/04 00:40:16;;;;;;;2.20;1.80;;;12.30;99.70;;;;;;5034446;28;20018;-61
2021/07/04 00:42:44;;;;;;;2.53;2.30;;;12.50;99.80;;;;;;5035964;28;20036;-61
2021/07/04 00:45:17;;;;;;;3.60;2.10;;;12.40;99.00;;;;;;5035881;28;20505;-61
2021/07/04 00:47:46;;;;;;;2.50;2.10;;;12.50;99.40;;;;;;5035758;28;20036;-60
2021/07/04 00:50:14;;;;;;;1.85;1.70;;;12.50;99.50;;;;;;5035831;28;20024;-60
2021/07/04 00:52:44;;;;;;;2.72;1.42;;;12.70;99.90;;;;;;5034573;28;20017;-60
2021/07/04 00:55:15;;;;;;;1.60;1.50;;;12.80;99.30;;;;;;5035645;28;20025;-60
2021/07/04 00:57:44;;;;;;;2.08;1.98;;;12.80;99.00;;;;;;5034552;28;20025;-61
2021/07/04 01:00:17;;;;;;;2.30;2.10;;;12.70;99.30;;;;;;5035750;28;20030;-61
2021/07/04 01:02:45;;;;;;;2.08;1.88;;;12.60;98.30;;;;;;5035605;28;20104;-61
2021/07/04 01:05:18;;;;;;;2.10;2.00;;;12.60;98.60;;;;;;5035352;28;20091;-61
2021/07/04 01:07:46;;;;;;;2.30;2.10;;;12.60;98.70;;;;;;5035490;28;20087;-61
2021/07/04 01:10:17;;;;;;;2.60;2.20;;;12.60;98.30;;;;;;5035513;28;20017;-60
2021/07/04 01:12:47;;;;;;;2.55;2.20;;;12.50;98.90;;;;;;5035414;28;20104;-61
2021/07/04 01:15:17;;;;;;;2.85;2.65;;;12.60;98.40;;;;;;5035564;28;20018;-61
2021/07/04 01:17:45;;;;;;;3.10;2.90;;;12.60;98.40;;;;;;5035332;28;20479;-61
2021/07/04 01:20:14;;;;;;;3.30;3.00;;;12.90;98.50;;;;;;5035313;28;20025;-61
2021/07/04 01:22:42;;;;;;;3.28;3.08;;;12.90;98.90;;;;;;5035361;28;20021;-61
2021/07/04 01:25:12;;;;;;;3.13;2.97;;;12.90;98.50;;;;;;5035243;28;20486;-60
2021/07/04 01:27:39;;;;;;;3.53;3.33;;;13.00;98.20;;;;;;5035074;28;20061;-62
2021/07/04 01:30:09;;;;;;;2.95;2.67;;;13.00;98.40;;;;;;5035151;28;20021;-61
2021/07/04 01:32:36;;;;;;;3.17;2.80;;;13.00;98.10;;;;;;5035164;28;20044;-62
2021/07/04 01:35:05;;;;;;;3.10;2.97;;;13.10;99.70;;;;;;5034995;28;20026;-61
2021/07/04 01:37:32;;;;;;;3.38;3.10;;;13.10;97.80;;;;;;5034925;28;20459;-61
2021/07/04 01:40:00;;;;;;;3.60;2.80;;;13.10;97.60;;;;;;5034974;28;20029;-62
2021/07/04 01:42:27;;;;;;;3.75;3.42;;;13.00;98.60;;;;;;5035086;28;20382;-61
2021/07/04 01:44:54;;;;;;;3.42;3.30;;;13.10;98.30;;;;;;5034896;28;20032;-61
2021/07/04 01:47:22;;;;;;;3.53;3.25;;;13.20;98.30;;;;;;5034629;28;20025;-62
2021/07/04 01:49:49;;;;;;;3.70;3.50;;;13.10;97.40;;;;;;5034819;28;20022;-61
2021/07/04 01:52:16;;;;;;;3.67;3.47;;;13.20;97.70;;;;;;5033766;28;20026;-61
2021/07/04 01:54:44;;;;;;;3.70;3.50;;;13.20;97.30;;;;;;5034644;28;20382;-62
2021/07/04 01:57:11;;;;;;;3.88;3.58;;;13.30;98.10;;;;;;5034760;28;20018;-61
2021/07/04 01:59:47;;;;;;;4.18;3.67;;;13.20;97.30;;;;;;5034393;28;20083;-61
2021/07/04 02:02:14;;;;;;;3.67;3.47;;;13.30;97.40;;;;;;5034710;28;20108;-60
2021/07/04 02:04:43;;;;;;;3.55;3.40;;;13.40;97.60;;;;;;5033988;28;20029;-61
2021/07/04 02:07:16;;;;;;;3.38;3.13;;;13.20;97.30;;;;;;5034137;28;20035;-61
2021/07/04 02:09:44;;;;;;;3.50;3.30;;;13.50;98.70;;;;;;5034098;28;20018;-61
2021/07/04 02:12:13;;;;;;;3.80;3.60;;;13.30;97.20;;;;;;5034079;28;20390;-61
2021/07/04 02:14:41;;;;;;;3.65;3.17;;;13.50;97.10;;;;;;5034161;28;20024;-61
2021/07/04 02:17:09;;;;;;;3.53;3.22;;;13.40;97.60;;;;;;5033908;28;20104;-61
2021/07/04 02:19:38;;;;;;;3.10;2.90;;;13.30;96.50;;;;;;5034008;28;20429;-60
2021/07/04 02:22:10;;;;;;;3.65;3.40;;;13.40;97.30;;;;;;5034079;28;20021;-61
2021/07/04 02:24:38;;;;;;;3.53;3.33;;;13.50;97.60;;;;;;5034075;28;20029;-61
2021/07/04 02:27:11;;;;;;;3.40;3.20;;;13.50;97.00;;;;;;5034221;28;20478;-61
2021/07/04 02:29:39;;;;;;;3.53;3.22;;;13.50;96.40;;;;;;5033988;28;20032;-60
2021/07/04 02:32:07;;;;;;;3.97;3.67;;;13.40;97.10;;;;;;5034110;28;20152;-61
2021/07/04 02:34:34;;;;;;;3.60;3.40;;;13.60;97.50;;;;;;5033945;28;20028;-60
2021/07/04 02:37:02;;;;;;;3.38;3.17;;;13.50;97.30;;;;;;5033864;28;20500;-61
2021/07/04 02:39:29;;;;;;;3.13;2.90;;;13.80;96.60;;;;;;5033846;28;20097;-61
2021/07/04 02:41:57;;;;;;;3.20;3.00;;;13.80;96.60;;;;;;5033758;28;20061;-61
2021/07/04 02:44:24;;;;;;;3.42;3.22;;;13.90;97.10;;;;;;5033699;28;20036;-61
2021/07/04 02:46:51;;;;;;;3.85;3.47;;;13.50;97.00;;;;;;5033671;28;20084;-61
2021/07/04 02:49:19;;;;;;;3.30;3.00;;;13.50;96.80;;;;;;5033533;28;20041;-61
2021/07/04 02:51:46;;;;;;;3.70;3.50;;;13.80;97.50;;;;;;5033424;28;20017;-61
2021/07/04 02:54:13;;;;;;;4.07;3.25;;;13.90;96.90;;;;;;5033327;28;20022;-60
2021/07/04 02:56:41;;;;;;;3.65;3.45;;;13.80;97.20;;;;;;5033400;28;20410;-61
2021/07/04 02:59:08;;;;;;;3.40;3.20;;;14.10;97.50;;;;;;5033336;28;20393;-60
2021/07/04 03:01:35;;;;;;;3.75;3.45;;;14.20;96.50;;;;;;5033431;28;20025;-61
2021/07/04 03:04:03;;;;;;;3.65;3.35;;;14.20;97.40;;;;;;5033002;28;20045;-61
2021/07/04 03:06:30;;;;;;;3.50;3.30;;;14.30;97.80;;;;;;5031961;28;20109;-61
2021/07/04 03:08:57;;;;;;;3.55;3.35;;;14.20;96.00;;;;;;5033060;28;20028;-60
2021/07/04 03:11:25;;;;;;;3.95;3.65;;;14.00;96.40;;;;;;5033141;28;20024;-60
2021/07/04 03:13:52;;;;;;;3.60;3.40;;;13.90;96.70;;;;;;5033054;28;20482;-59
2021/07/04 03:16:19;;;;;;;3.40;3.20;;;14.00;97.10;;;;;;5033187;28;20017;-61
2021/07/04 03:18:47;;;;;;;3.75;3.45;;;14.10;98.60;;;;;;5033142;28;20025;-61
2021/07/04 03:21:14;;;;;;;3.80;3.60;;;14.20;97.00;;;;;;5033104;28;20429;-61
2021/07/04 03:23:41;;;;;;;3.63;3.30;;;14.20;96.80;;;;;;5033137;28;20101;-60
2021/07/04 03:26:08;;;;;;;4.55;4.25;;;14.30;95.90;;;;;;5033044;28;20033;-61
2021/07/04 03:28:36;;;;;;;3.60;3.40;;;14.40;96.00;;;;;;5032832;28;20021;-60
2021/07/04 03:31:03;;;;;;;4.10;3.80;;;14.50;95.60;;;;;;5033084;28;20096;-60
2021/07/04 03:33:31;;;;;;;5.55;5.20;;;14.30;96.30;;;;;;5033219;28;20148;-60
2021/07/04 03:35:58;;;;;;;4.13;3.78;;;14.40;96.70;;;;;;5031833;28;20466;-62
2021/07/04 03:38:26;;;;;;;7.20;6.60;;;14.40;95.80;;;;;;5032994;28;20482;-61
2021/07/04 03:40:53;;;;;;;3.25;3.13;;;14.50;96.70;;;;;;5032864;28;20025;-60
2021/07/04 03:43:20;;;;;;;3.30;3.15;;;14.40;95.50;;;;;;5032899;28;20419;-61
2021/07/04 03:45:47;;;;;;;3.08;2.97;;;14.40;95.30;;;;;;5032867;28;20021;-59
2021/07/04 03:48:15;;;;;;;3.05;2.85;;;14.30;95.70;;;;;;5032745;28;20104;-60
2021/07/04 03:50:43;;;;;;;3.25;3.05;;;14.20;95.80;;;;;;5032948;28;20025;-59
2021/07/04 03:53:10;;;;;;;3.80;3.50;;;14.20;95.60;;;;;;5032828;28;20078;-59
2021/07/04 03:55:38;;;;;;;4.00;3.80;;;14.30;96.50;;;;;;5032858;28;20100;-60
2021/07/04 03:58:05;;;;;;;3.15;3.05;;;14.30;97.10;;;;;;5032950;28;20026;-60
2021/07/04 04:00:33;;;;;;;3.38;3.20;;;14.50;95.90;;;;;;5032829;28;20029;-60
2021/07/04 04:03:00;;;;;;;3.10;2.90;;;14.30;94.60;;;;;;5033465;28;20044;-59
2021/07/04 04:05:27;;;;;;;5.50;3.63;;;14.20;94.90;;;;;;5033257;28;20065;-60
2021/07/04 04:07:54;;;;;;;3.65;3.35;;;14.40;96.70;;;;;;5033086;28;20401;-60
2021/07/04 04:10:22;;;;;;;3.35;3.15;;;14.50;96.00;;;;;;5032939;28;20029;-60
2021/07/04 04:12:49;;;;;;;3.42;3.17;;;14.50;96.00;;;;;;5032955;28;20014;-60
2021/07/04 04:15:17;;;;;;;3.60;3.40;;;14.40;95.40;;;;;;5035555;28;20018;-59
2021/07/04 04:17:44;;;;;;;3.70;3.40;;;14.40;95.80;;;;;;5036819;28;20036;-60
2021/07/04 04:20:12;;;;;;;3.53;3.33;;;14.50;95.40;;;;;;5036881;28;20482;-59
2021/07/04 04:22:39;;;;;;;3.20;3.00;;;14.60;95.40;;;;;;5036815;28;20074;-59
2021/07/04 04:25:07;;;;;;;3.58;3.38;;;14.50;95.20;;;;;;5036804;28;20030;-59
2021/07/04 04:27:34;;;;;;;3.90;3.70;;;14.40;94.90;;;;;;5036543;28;20021;-59
2021/07/04 04:30:03;;;;;;;4.68;4.28;;;14.40;95.80;;;;;;5036420;28;20510;-60
2021/07/04 04:32:30;;;;;;;4.00;3.70;;;14.40;96.20;;;;;;5036546;28;20028;-59
2021/07/04 04:34:57;;;;;;;28.23;25.23;;;14.50;96.40;;;;;;5036613;28;20041;-60
2021/07/04 04:37:25;;;;;;;5.80;5.40;;;14.60;97.20;;;;;;5036373;28;20017;-59
2021/07/04 04:39:52;;;;;;;6.20;5.65;;;14.50;97.20;;;;;;5036529;28;20028;-59
2021/07/04 04:42:20;;;;;;;7.43;6.88;;;14.40;96.90;;;;;;5036711;28;20541;-60
2021/07/04 04:44:47;;;;;;;14.98;13.63;;;14.50;96.80;;;;;;5036172;28;20113;-59
2021/07/04 04:47:14;;;;;;;6.72;6.15;;;14.50;97.10;;;;;;5035968;28;20101;-59
2021/07/04 04:49:42;;;;;;;5.68;5.18;;;14.40;96.10;;;;;;5035821;28;20460;-59
2021/07/04 04:52:09;;;;;;;19.45;17.35;;;14.30;96.60;;;;;;5035868;28;20486;-60
2021/07/04 04:54:36;;;;;;;5.15;4.78;;;14.30;96.90;;;;;;5035728;28;20022;-60
2021/07/04 04:57:06;;;;;;;3.70;3.50;;;14.30;96.70;;;;;;5035800;28;20096;-58
2021/07/04 04:59:38;;;;;;;4.03;3.72;;;14.20;96.20;;;;;;5036038;28;20018;-58
2021/07/04 05:02:06;;;;;;;5.88;5.28;;;14.10;96.90;;;;;;5035632;28;20034;-59
2021/07/04 05:04:34;;;;;;;4.85;4.45;;;14.20;97.20;;;;;;5035510;28;20056;-59
2021/07/04 05:07:01;;;;;;;12.63;11.38;;;14.20;96.60;;;;;;5035670;28;20109;-59
2021/07/04 05:09:29;;;;;;;11.77;10.55;;;14.20;97.90;;;;;;5035487;28;20029;-58
2021/07/04 05:11:57;;;;;;;3.80;3.50;;;14.20;97.90;;;;;;5035675;28;20028;-59
2021/07/04 05:14:24;;;;;;;5.80;5.30;;;14.10;96.80;;;;;;5035559;28;20057;-60
2021/07/04 05:16:52;;;;;;;5.93;5.43;;;14.00;97.60;;;;;;5035464;28;20398;-59
2021/07/04 05:19:19;;;;;;;5.65;5.10;;;14.00;97.80;;;;;;5035524;28;20030;-60
2021/07/04 05:21:46;;;;;;;4.43;4.10;;;14.00;97.50;;;;;;5035349;28;20025;-60
2021/07/04 05:24:14;;;;;;;4.43;4.13;;;14.00;97.30;;;;;;5035281;28;20049;-59
2021/07/04 05:26:41;;;;;;;4.60;4.30;;;14.00;97.30;;;;;;5035171;28;20036;-59
2021/07/04 05:29:09;;;;;;;6.00;5.47;;;14.00;97.80;;;;;;5035104;28;20505;-59
2021/07/04 05:31:37;;;;;;;6.10;4.70;;;14.00;99.50;;;;;;5035186;28;20029;-58
2021/07/04 05:34:04;;;;;;;5.13;4.72;;;14.00;98.70;;;;;;5035058;28;20021;-59
2021/07/04 05:36:32;;;;;;;5.20;4.35;;;13.90;97.80;;;;;;5035041;28;20049;-60
2021/07/04 05:38:59;;;;;;;4.20;4.00;;;13.90;97.80;;;;;;5035095;28;20017;-61
2021/07/04 05:41:27;;;;;;;4.10;3.85;;;13.90;97.80;;;;;;5034987;28;20116;-61
2021/07/04 05:43:54;;;;;;;4.20;3.90;;;13.90;97.60;;;;;;5034935;28;20538;-61
2021/07/04 05:46:22;;;;;;;4.68;4.22;;;13.80;98.40;;;;;;5034726;28;20383;-61
2021/07/04 05:48:50;;;;;;;4.10;3.80;;;13.80;98.50;;;;;;5034707;28;20029;-61
2021/07/04 05:51:17;;;;;;;4.05;3.85;;;13.70;98.70;;;;;;5034796;28;20025;-61
2021/07/04 05:53:44;;;;;;;3.80;3.60;;;13.70;97.60;;;;;;5035077;28;20018;-61
2021/07/04 05:56:12;;;;;;;3.75;3.55;;;13.70;97.60;;;;;;5034533;28;20429;-61
2021/07/04 05:58:39;;;;;;;3.83;3.53;;;13.60;97.90;;;;;;5034571;28;20026;-61
2021/07/04 06:01:06;;;;;;;4.47;3.70;;;13.60;97.80;;;;;;5034496;28;20033;-61
2021/07/04 06:03:34;;;;;;;4.00;3.70;;;13.60;98.00;;;;;;5034411;28;20087;-60
2021/07/04 06:06:01;;;;;;;4.00;3.80;;;13.50;98.60;;;;;;5034469;28;20025;-61
2021/07/04 06:08:29;;;;;;;3.85;3.60;;;13.50;98.50;;;;;;5034363;28;20033;-59
2021/07/04 06:10:56;;;;;;;4.35;3.95;;;13.40;98.50;;;;;;5034636;28;20126;-61
2021/07/04 06:13:23;;;;;;;4.20;3.90;;;13.30;99.30;;;;;;5034328;28;20033;-60
2021/07/04 06:15:51;;;;;;;6.03;4.10;;;13.10;99.90;;;;;;5034250;28;20436;-60
2021/07/04 06:18:18;;;;;;;4.15;3.85;;;13.00;99.90;;;;;;5034319;28;20391;-60
2021/07/04 06:20:45;;;;;;;3.70;3.50;;;12.90;99.90;;;;;;5034096;28;20022;-61
2021/07/04 06:23:13;;;;;;;4.85;4.10;;;12.90;99.90;;;;;;5034352;28;20112;-60
2021/07/04 06:25:40;;;;;;;4.18;3.85;;;12.80;99.90;;;;;;5034073;28;20037;-60
2021/07/04 06:28:08;;;;;;;4.00;3.80;;;12.70;99.90;;;;;;5033976;28;20064;-60
2021/07/04 06:30:35;;;;;;;4.25;3.70;;;12.70;99.90;;;;;;5034083;28;20021;-60
2021/07/04 06:33:03;;;;;;;4.20;3.90;;;12.60;99.90;;;;;;5033923;28;20029;-60
2021/07/04 06:35:30;;;;;;;6.55;4.63;;;12.50;99.90;;;;;;5033827;28;20396;-58
2021/07/04 06:37:57;;;;;;;4.68;4.28;;;12.50;99.90;;;;;;5033303;28;20022;-60
2021/07/04 06:40:25;;;;;;;4.75;4.35;;;12.30;99.90;;;;;;5033875;28;20076;-59
2021/07/04 06:42:52;;;;;;;5.85;4.80;;;12.30;99.90;;;;;;5032664;28;20084;-60
2021/07/04 06:45:20;;;;;;;54.80;30.05;;;12.20;99.90;;;;;;5033746;28;20315;-60
2021/07/04 06:47:49;;;;;;;11.07;8.38;;;12.10;99.90;;;;;;5033655;28;20091;-59
2021/07/04 06:50:19;;;;;;;6.65;6.03;;;12.00;99.90;;;;;;5033647;28;20045;-59
2021/07/04 06:52:47;;;;;;;5.65;5.18;;;11.90;99.90;;;;;;5032325;28;20025;-59
2021/07/04 06:55:15;;;;;;;7.90;7.15;;;11.80;99.90;;;;;;5033404;28;20029;-60
2021/07/04 06:57:43;;;;;;;11.88;10.65;;;11.80;99.90;;;;;;5033508;28;20101;-59
2021/07/04 07:00:15;;;;;;;14.35;12.23;;;11.60;99.90;;;;;;5033436;28;20526;-61
2021/07/04 07:02:43;;;;;;;9.85;8.68;;;11.60;99.90;;;;;;5033396;28;20478;-60
2021/07/04 07:05:12;;;;;;;10.13;9.23;;;11.50;99.90;;;;;;5033187;28;20501;-61
2021/07/04 07:07:40;;;;;;;9.77;8.85;;;11.30;99.90;;;;;;5033132;28;20021;-60
2021/07/04 07:10:10;;;;;;;7.50;7.00;;;11.20;99.90;;;;;;5033486;28;20024;-60
2021/07/04 07:12:41;;;;;;;8.97;8.27;;;11.00;99.90;;;;;;5033250;28;20121;-60
2021/07/04 07:15:10;;;;;;;7.78;7.18;;;10.90;99.90;;;;;;5032990;28;20025;-60
2021/07/04 07:17:38;;;;;;;8.95;8.20;;;10.70;99.90;;;;;;5033171;28;20108;-60
2021/07/04 07:20:07;;;;;;;7.63;7.10;;;10.60;99.90;;;;;;5033204;28;20029;-60
2021/07/04 07:22:35;;;;;;;20.88;19.08;;;10.40;99.90;;;;;;5033059;28;20028;-60
2021/07/04 07:25:03;;;;;;;18.45;16.60;;;10.40;99.90;;;;;;5033514;28;20445;-60
2021/07/04 07:27:30;;;;;;;13.48;12.27;;;10.30;99.90;;;;;;5033039;28;20018;-60
2021/07/04 07:29:58;;;;;;;20.13;18.20;;;10.20;99.90;;;;;;5033058;28;20413;-60
2021/07/04 07:32:27;;;;;;;15.77;14.23;;;10.20;99.90;;;;;;5032977;28;20024;-58
2021/07/04 07:34:55;;;;;;;10.52;9.73;;;10.10;99.90;;;;;;5033095;28;20044;-60
2021/07/04 07:37:23;;;;;;;16.25;13.40;;;10.10;99.90;;;;;;5032959;28;20440;-60
2021/07/04 07:39:51;;;;;;;10.60;9.50;;;10.10;99.90;;;;;;5032892;28;20088;-60
2021/07/04 07:42:19;;;;;;;10.07;9.38;;;9.90;99.90;;;;;;5032909;28;20470;-60
2021/07/04 07:44:46;;;;;;;10.27;9.48;;;9.90;99.90;;;;;;5031638;28;20078;-60
2021/07/04 07:47:14;;;;;;;14.00;12.90;;;9.80;99.90;;;;;;5031569;28;20029;-60
2021/07/04 07:49:41;;;;;;;13.02;11.93;;;9.90;99.90;;;;;;5034300;28;20025;-59
2021/07/04 07:52:09;;;;;;;20.23;18.13;;;9.80;99.90;;;;;;5036914;28;20028;-61
2021/07/04 07:54:37;;;;;;;20.83;18.23;;;9.80;99.90;;;;;;5036736;28;20026;-60
2021/07/04 07:57:07;;;;;;;17.02;15.63;;;9.70;99.90;;;;;;5037019;28;20394;-61
2021/07/04 07:59:35;;;;;;;15.65;14.40;;;9.60;99.90;;;;;;5037072;28;20037;-60
2021/07/04 08:02:02;;;;;;;15.27;13.90;;;9.60;99.90;;;;;;5036964;28;20028;-61
2021/07/04 08:04:30;;;;;;;13.75;12.60;;;9.50;99.90;;;;;;5036819;28;20050;-61
2021/07/04 08:06:57;;;;;;;14.55;13.32;;;9.70;99.90;;;;;;5036871;28;20064;-61
2021/07/04 08:09:24;;;;;;;15.48;13.18;;;9.80;99.90;;;;;;5036751;28;20116;-61
2021/07/04 08:11:52;;;;;;;13.85;12.68;;;9.80;99.90;;;;;;5036783;28;20024;-61
2021/07/04 08:14:19;;;;;;;13.63;12.43;;;9.90;99.90;;;;;;5036667;28;20360;-61
2021/07/04 08:16:47;;;;;;;14.35;13.10;;;9.80;99.90;;;;;;5035452;28;20109;-61
2021/07/04 08:19:15;;;;;;;13.02;11.93;;;9.80;99.90;;;;;;5036624;28;20026;-61
2021/07/04 08:21:42;;;;;;;15.63;14.13;;;9.80;99.90;;;;;;5036706;28;20496;-61
2021/07/04 08:24:10;;;;;;;10.55;9.68;;;9.70;99.90;;;;;;5036664;28;20108;-59
2021/07/04 08:26:38;;;;;;;10.32;9.52;;;10.00;99.90;;;;;;5036511;28;20471;-61
2021/07/04 08:29:05;;;;;;;9.52;8.70;;;9.90;99.90;;;;;;5035055;28;20486;-60
2021/07/04 08:31:32;;;;;;;8.60;8.00;;;9.90;99.90;;;;;;5036354;28;20021;-61
2021/07/04 08:34:00;;;;;;;8.85;8.05;;;10.10;99.90;;;;;;5036209;28;20045;-60
2021/07/04 08:36:30;;;;;;;8.07;7.40;;;10.20;99.90;;;;;;5036223;28;20409;-60
2021/07/04 08:38:58;;;;;;;7.85;7.35;;;10.30;99.90;;;;;;5036220;28;20098;-60
2021/07/04 08:41:26;;;;;;;8.73;8.02;;;10.40;99.90;;;;;;5036210;28;20477;-61
2021/07/04 08:43:53;;;;;;;8.30;7.70;;;10.30;99.90;;;;;;5035957;28;20033;-60
2021/07/04 08:46:21;;;;;;;8.55;7.85;;;10.30;99.90;;;;;;5035941;28;20040;-61
2021/07/04 08:48:49;;;;;;;8.23;7.45;;;10.30;99.90;;;;;;5035878;28;20028;-61
2021/07/04 08:51:17;;;;;;;7.80;7.20;;;10.30;99.90;;;;;;5035754;28;20140;-60
2021/07/04 08:53:44;;;;;;;8.15;7.55;;;10.30;99.90;;;;;;5035826;28;20021;-61
2021/07/04 08:56:13;;;;;;;7.18;6.68;;;10.40;99.90;;;;;;5035842;28;20021;-61
2021/07/04 08:58:40;;;;;;;7.78;7.18;;;10.40;99.90;;;;;;5035792;28;20477;-61
2021/07/04 09:01:13;;;;;;;7.50;7.00;;;10.50;99.90;;;;;;5034232;28;20076;-60
2021/07/04 09:03:43;;;;;;;8.00;7.35;;;10.50;99.90;;;;;;5035412;28;20025;-60
2021/07/04 09:06:11;;;;;;;8.55;7.85;;;10.50;99.90;;;;;;5035880;28;20025;-60
2021/07/04 09:08:39;;;;;;;7.93;7.32;;;10.30;99.90;;;;;;5035970;28;20065;-61
2021/07/04 09:11:18;;;;;;;7.53;6.93;;;10.30;99.90;;;;;;5035463;28;20018;-62
2021/07/04 09:13:48;;;;;;;7.85;7.35;;;10.30;99.90;;;;;;5035492;28;20390;-61
2021/07/04 09:16:24;;;;;;;7.27;6.70;;;10.20;99.90;;;;;;5035385;28;20028;-62
2021/07/04 09:19:15;;;;;;;7.57;6.97;;;10.20;99.90;;;;;;5035220;28;20033;-62
2021/07/04 09:21:43;;;;;;;7.65;6.90;;;10.00;99.90;;;;;;5035252;28;20049;-62
2021/07/04 09:24:32;;;;;;;7.38;6.68;;;9.90;99.90;;;;;;5035131;28;20033;-61
2021/07/04 09:27:00;;;;;;;7.47;6.97;;;9.80;99.90;;;;;;5035208;28;20390;-61
2021/07/04 09:29:44;;;;;;;8.13;7.50;;;9.80;99.90;;;;;;5035058;28;20033;-60
2021/07/04 09:32:12;;;;;;;8.02;7.32;;;9.80;99.90;;;;;;5034941;28;20036;-60
2021/07/04 09:34:40;;;;;;;7.78;7.10;;;9.70;99.90;;;;;;5034927;28;20083;-60
2021/07/04 09:37:07;;;;;;;7.47;6.88;;;9.80;99.90;;;;;;5035025;28;20045;-61
2021/07/04 09:39:35;;;;;;;8.07;7.47;;;9.80;99.90;;;;;;5034878;28;20096;-61
2021/07/04 09:42:12;;;;;;;7.55;6.85;;;9.80;99.90;;;;;;5034749;28;20025;-61
2021/07/04 09:44:40;;;;;;;7.60;6.95;;;9.70;99.90;;;;;;5034794;28;20104;-61
2021/07/04 09:47:20;;;;;;;7.60;6.90;;;9.60;99.90;;;;;;5035039;28;20064;-61
2021/07/04 09:49:48;;;;;;;;;;;9.60;99.90;;;;;;5035173;28;20461;-61
2021/07/04 09:52:22;;;;;;;7.75;7.07;;;9.60;99.90;;;;;;5034633;28;20012;-61
2021/07/04 09:55:08;;;;;;;8.30;7.50;;;9.50;99.90;;;;;;5034814;28;20064;-61
2021/07/04 09:57:58;;;;;;;8.75;7.90;;;9.50;99.90;;;;;;5034742;28;20021;-62
2021/07/04 10:00:32;;;;;;;9.77;8.13;;;9.40;99.90;;;;;;5034579;28;20025;-62
2021/07/04 10:03:09;;;;;;;8.82;8.00;;;9.30;99.90;;;;;;5034536;28;20151;-62
2021/07/04 10:05:38;;;;;;;9.35;8.45;;;9.30;99.90;;;;;;5034433;28;20087;-62
2021/07/04 10:08:28;;;;;;;9.05;7.90;;;9.30;99.90;;;;;;5034336;28;20152;-63
2021/07/04 10:10:58;;;;;;;8.95;8.05;;;9.20;99.90;;;;;;5032972;28;20093;-62
2021/07/04 10:13:27;;;;;;;8.48;7.68;;;9.20;99.90;;;;;;5033364;28;20026;-62
2021/07/04 10:15:55;;;;;;;7.88;7.30;;;9.20;99.90;;;;;;5034146;28;20083;-62
2021/07/04 10:18:23;;;;;;;44.55;29.77;;;9.20;99.90;;;;;;5034029;28;20022;-61
2021/07/04 10:20:52;;;;;;;45.60;31.50;;;9.20;99.90;;;;;;5033948;28;20506;-61
2021/07/04 10:23:23;;;;;;;21.08;15.77;;;9.20;99.90;;;;;;5033727;28;20032;-61
2021/07/04 10:25:52;;;;;;;11.80;10.60;;;9.20;99.90;;;;;;5033584;28;20038;-62
2021/07/04 10:28:30;;;;;;;10.48;9.48;;;9.20;99.90;;;;;;5033700;28;20036;-60
2021/07/04 10:31:01;;;;;;;9.07;8.25;;;9.20;99.90;;;;;;5033761;28;20498;-62
2021/07/04 10:33:34;;;;;;;9.00;8.32;;;9.20;99.90;;;;;;5033783;28;20025;-61
2021/07/04 10:36:04;;;;;;;8.60;7.90;;;9.20;99.90;;;;;;5033561;28;20021;-61
2021/07/04 10:38:58;;;;;;;8.82;8.23;;;9.20;99.90;;;;;;5033492;28;20041;-60
2021/07/04 10:41:35;;;;;;;8.55;7.85;;;9.20;99.90;;;;;;5033238;28;20167;-61
2021/07/04 10:44:13;;;;;;;7.85;7.25;;;9.20;99.90;;;;;;5033559;28;20030;-62
2021/07/04 10:46:46;;;;;;;7.28;6.78;;;9.10;99.90;;;;;;5033575;28;20032;-63
2021/07/04 10:49:19;;;;;;;7.50;7.00;;;9.10;99.90;;;;;;5033363;28;20025;-62
2021/07/04 10:51:58;;;;;;;7.05;6.45;;;9.10;99.90;;;;;;5033410;28;20098;-61
2021/07/04 10:54:40;;;;;;;6.80;6.40;;;9.20;99.90;;;;;;5033293;28;20485;-61
2021/07/04 10:57:10;;;;;;;6.90;6.40;;;9.20;99.90;;;;;;5033700;28;20100;-61
2021/07/04 11:00:13;;;;;;;7.38;6.88;;;9.30;99.90;;;;;;5033285;28;20022;-61
2021/07/04 11:02:54;;;;;;;6.63;6.32;;;9.30;99.90;;;;;;5033350;28;20363;-60
2021/07/04 11:05:38;;;;;;;7.65;7.05;;;9.30;99.90;;;;;;5032990;28;20080;-61
2021/07/04 11:08:06;;;;;;;6.50;6.10;;;9.40;99.90;;;;;;5032959;28;20048;-61
2021/07/04 11:11:14;;;;;;;6.78;6.35;;;9.40;99.90;;;;;;5032890;28;20041;-61
2021/07/04 11:13:44;;;;;;;6.30;6.00;;;9.30;99.90;;;;;;5032869;28;20013;-62
2021/07/04 11:16:19;;;;;;;6.03;5.72;;;9.40;99.90;;;;;;5033008;28;20478;-63
2021/07/04 11:18:56;;;;;;;6.13;5.72;;;9.50;99.90;;;;;;5033054;28;20083;-62
2021/07/04 11:21:44;;;;;;;6.03;5.72;;;9.50;99.90;;;;;;5032941;28;20049;-63
2021/07/04 11:24:39;;;;;;;6.10;5.70;;;9.60;99.90;;;;;;5032819;28;20017;-61
2021/07/04 11:27:28;;;;;;;5.53;5.10;;;9.60;99.90;;;;;;5032796;28;20029;-62
2021/07/04 11:30:27;;;;;;;5.10;4.80;;;9.70;99.90;;;;;;5033158;28;20025;-62
2021/07/04 11:33:21;;;;;;;5.00;4.75;;;9.70;99.90;;;;;;5032794;28;20445;-63
2021/07/04 11:35:49;;;;;;;5.22;4.82;;;9.70;99.90;;;;;;5033218;28;20029;-63
2021/07/04 11:38:21;;;;;;;5.30;5.10;;;9.40;99.90;;;;;;5033093;28;20034;-62
2021/07/04 11:40:50;;;;;;;5.00;4.80;;;9.70;99.90;;;;;;5032784;28;20530;-62
2021/07/04 11:43:20;;;;;;;5.00;4.80;;;9.70;99.90;;;;;;5032658;28;20040;-62
2021/07/04 11:46:08;;;;;;;5.15;4.90;;;9.60;99.90;;;;;;5032678;28;20032;-62
2021/07/04 11:49:04;;;;;;;5.00;4.80;;;9.60;99.90;;;;;;5032614;28;20057;-62
2021/07/04 11:51:50;;;;;;;5.07;4.78;;;9.40;99.90;;;;;;5033002;28;20097;-62
2021/07/04 11:54:28;;;;;;;5.20;4.90;;;9.30;99.90;;;;;;5032553;28;20151;-62
2021/07/04 12:00:01;;;;;;;5.28;4.97;;;9.30;99.90;;;;;;5032600;28;20041;-62
2021/07/04 12:02:29;;;;;;;5.28;5.07;;;9.30;99.90;;;;;;5032601;28;20537;-62
2021/07/04 12:04:57;;;;;;;5.20;4.88;;;9.30;99.90;;;;;;5032290;28;20045;-63
2021/07/04 12:07:28;;;;;;;5.00;4.80;;;9.30;99.90;;;;;;5032372;28;20060;-62
2021/07/04 12:09:55;;;;;;;;;;;9.20;99.90;;;;;;5032947;28;20021;-62
2021/07/04 12:12:29;;;;;;;5.38;5.07;;;9.30;99.90;;;;;;5032534;28;19972;-62
2021/07/04 12:15:11;;;;;;;5.30;5.00;;;9.00;99.90;;;;;;5032322;28;20026;-62
2021/07/04 12:17:46;;;;;;;5.40;5.10;;;9.00;99.90;;;;;;5032471;28;20482;-62
2021/07/04 12:20:25;;;;;;;5.28;4.97;;;9.00;99.90;;;;;;5032289;28;20026;-62
2021/07/04 12:22:55;;;;;;;5.18;4.90;;;9.20;99.90;;;;;;5032353;28;20025;-62
2021/07/04 12:25:31;;;;;;;4.78;4.57;;;9.10;99.90;;;;;;5032696;28;20014;-63
2021/07/04 12:28:06;;;;;;;4.80;4.60;;;9.10;99.90;;;;;;5032198;28;20030;-62
2021/07/04 12:30:39;;;;;;;4.93;4.72;;;9.20;99.90;;;;;;5032348;28;20053;-62
2021/07/04 12:33:21;;;;;;;4.80;4.60;;;9.20;99.90;;;;;;5032331;28;20090;-62
2021/07/04 12:35:54;;;;;;;4.70;4.43;;;9.20;99.90;;;;;;5033921;28;20068;-63
2021/07/04 12:38:25;;;;;;;5.30;4.80;;;9.30;99.90;;;;;;5036080;28;20108;-63
2021/07/04 12:40:54;;;;;;;;;;;9.20;99.90;;;;;;5036277;28;20060;-62
2021/07/04 12:43:29;;;;;;;5.10;4.90;;;9.20;99.90;;;;;;5035892;28;19905;-63
2021/07/04 12:45:59;;;;;;;5.32;4.90;;;9.10;99.90;;;;;;5035800;28;20056;-62
2021/07/04 12:48:30;;;;;;;5.10;4.80;;;9.00;99.90;;;;;;5035678;28;20501;-63
2021/07/04 12:51:01;;;;;;;;;;;9.10;99.90;;;;;;5036409;28;20029;-63
2021/07/04 12:53:46;;;;;;;5.47;5.10;;;9.10;99.90;;;;;;5036071;28;19912;-63
2021/07/04 12:56:19;;;;;;;5.40;5.10;;;9.00;99.90;;;;;;5035782;28;20077;-63
2021/07/04 12:59:03;;;;;;;5.70;5.30;;;8.90;99.90;;;;;;5035756;28;20032;-63
2021/07/04 13:01:37;;;;;;;5.40;5.20;;;8.80;99.90;;;;;;5035646;28;20048;-63
2021/07/04 13:04:04;;;;;;;5.90;5.40;;;8.80;99.90;;;;;;5035488;28;20056;-63
2021/07/04 13:06:47;;;;;;;5.53;5.22;;;8.80;99.90;;;;;;5035518;28;20025;-63